Time;durP1;ratioP1;P1;durP2;ratioP2;P2;SDS_P1;SDS_P2;PMS_P1;PMS_P2;Temp;Humidity;BMP_temperature;BMP_pressure;BME280_temperature;BME280_humidity;BME280_pressure;Samples;Min_cycle;Max_cycle;Signal;HPM_P1;HPM_P2
2021/05/23 00:00:24;;;;;;;;;;;;;;;12.06;100.00;99011.29;1704481;84;20240;-67
2021/05/23 00:02:53;;;;;;;;;;;;;;;12.04;100.00;99016.14;1703935;84;20527;-66
2021/05/23 00:05:24;;;;;;;;;;;;;;;12.01;100.00;99015.35;1705294;84;20304;-66
2021/05/23 00:07:59;;;;;;;;;;;;;;;12.01;100.00;99011.31;1707116;84;20539;-66
2021/05/23 00:10:27;;;;;;;;;;;;;;;11.99;100.00;99015.61;1705904;83;20875;-66
2021/05/23 00:12:55;;;;;;;;;;;;;;;11.97;100.00;99016.97;1706249;84;20217;-66
2021/05/23 00:15:28;;;;;;;;;;;;;;;11.97;100.00;99011.59;1706496;84;21048;-66
2021/05/23 00:17:54;;;;;;;;;;;;;;;11.97;100.00;99007.56;1706759;84;20161;-66
2021/05/23 00:20:22;;;;;;;;;;;;;;;11.96;100.00;99008.11;1707122;83;20168;-66
2021/05/23 00:22:48;;;;;;;;;;;;;;;11.99;100.00;99007.55;1705534;84;20200;-65
2021/05/23 00:25:18;;;;;;;;;;;;;;;12.03;100.00;99016.41;1702962;84;20160;-67
2021/05/23 00:27:44;;;;;;;;;;;;;;;12.01;100.00;99012.12;1720041;82;21123;-67
2021/05/23 00:30:12;;;;;;;;;;;;;;;11.97;100.00;99004.88;1706184;83;20160;-66
2021/05/23 00:32:39;;;;;;;;;;;;;;;11.94;100.00;98998.70;1707549;84;20533;-66
2021/05/23 00:35:07;;;;;;;;;;;;;;;11.95;100.00;99000.30;1707188;82;20172;-67
2021/05/23 00:37:34;;;;;;;;;;;;;;;11.94;100.00;98999.50;1684908;84;20196;-67
2021/05/23 00:40:00;;;;;;;;;;;;;;;11.95;100.00;99007.03;1706366;84;21106;-66
2021/05/23 00:42:27;;;;;;;;;;;;;;;11.91;100.00;99003.30;1702065;82;20673;-65
2021/05/23 00:44:53;;;;;;;;;;;;;;;11.90;100.00;99008.39;1708085;82;20157;-66
2021/05/23 00:47:20;;;;;;;;;;;;;;;11.88;100.00;99009.20;1706447;84;20241;-67
2021/05/23 00:49:47;;;;;;;;;;;;;;;11.87;100.00;99007.61;1708375;84;20216;-66
2021/05/23 00:52:13;;;;;;;;;;;;;;;11.86;100.00;99005.44;1707767;83;21099;-65
2021/05/23 00:54:40;;;;;;;;;;;;;;;11.86;100.00;99008.13;1707176;82;20176;-66
2021/05/23 00:57:06;;;;;;;;;;;;;;;11.87;100.00;99003.58;1707402;83;20232;-66
2021/05/23 00:59:54;;;;;;;;;;;;;;;11.88;100.00;99005.17;1718593;83;20161;-66
2021/05/23 01:02:41;;;;;;;;;;;;;;;11.90;100.00;99001.67;1722019;81;20605;-65
2021/05/23 01:05:09;;;;;;;;;;;;;;;11.94;100.00;99008.92;1720569;82;21107;-67
2021/05/23 01:07:36;;;;;;;;;;;;;;;11.95;100.00;99021.82;1697939;82;20254;-67
2021/05/23 01:10:06;;;;;;;;;;;;;;;11.96;100.00;99024.24;1700391;82;20172;-66
2021/05/23 01:12:54;;;;;;;;;;;;;;;12.00;100.00;99028.00;1693083;84;20193;-66
2021/05/23 01:15:42;;;;;;;;;;;;;;;12.01;100.00;99032.83;1714467;83;20136;-66
2021/05/23 01:18:13;;;;;;;;;;;;;;;11.97;100.00;99028.53;1718893;81;20220;-67
2021/05/23 01:20:55;;;;;;;;;;;;;;;11.97;100.00;99037.94;1716723;82;20597;-65
2021/05/23 01:23:27;;;;;;;;;;;;;;;11.97;100.00;99040.63;1706934;82;20148;-66
2021/05/23 01:26:02;;;;;;;;;;;;;;;11.95;100.00;99047.37;1709153;82;20160;-66
2021/05/23 01:28:25;;;;;;;;;;;;;;;11.94;100.00;99049.80;1714967;82;20136;-66
2021/05/23 01:30:52;;;;;;;;;;;;;;;11.91;100.00;99045.78;1713781;82;21558;-66
2021/05/23 01:33:19;;;;;;;;;;;;;;;11.87;100.00;99051.44;1715653;82;20577;-65
2021/05/23 01:35:50;;;;;;;;;;;;;;;11.87;100.00;99053.33;1710473;82;20213;-65
2021/05/23 01:38:18;;;;;;;;;;;;;;;11.85;100.00;99049.52;1710863;82;20534;-65
2021/05/23 01:40:44;;;;;;;;;;;;;;;11.86;100.00;99043.63;1708633;84;20128;-66
2021/05/23 01:43:11;;;;;;;;;;;;;;;11.84;100.00;99037.72;1710216;82;21695;-64
2021/05/23 01:45:38;;;;;;;;;;;;;;;11.85;100.00;99033.94;1704940;82;20231;-65
2021/05/23 01:48:07;;;;;;;;;;;;;;;11.85;100.00;99036.62;1709704;82;20168;-65
2021/05/23 01:50:33;;;;;;;;;;;;;;;11.83;100.00;99035.55;1710112;82;20367;-66
2021/05/23 01:53:01;;;;;;;;;;;;;;;11.79;100.00;99031.81;1710281;82;20594;-64
2021/05/23 01:55:29;;;;;;;;;;;;;;;11.78;100.00;99033.70;1670144;85;21173;-64
2021/05/23 01:57:55;;;;;;;;;;;;;;;11.76;100.00;99035.05;1641323;85;20312;-65
2021/05/23 02:00:28;;;;;;;;;;;;;;;11.74;100.00;99039.90;1664846;84;20171;-65
2021/05/23 02:02:55;;;;;;;;;;;;;;;11.74;100.00;99041.23;1665521;85;20208;-64
2021/05/23 02:05:22;;;;;;;;;;;;;;;11.71;100.00;99038.56;1669372;84;20257;-65
2021/05/23 02:07:48;;;;;;;;;;;;;;;11.70;100.00;99045.55;1651496;84;21757;-64
2021/05/23 02:10:16;;;;;;;;;;;;;;;11.67;100.00;99040.72;1653128;86;20153;-64
2021/05/23 02:12:45;;;;;;;;;;;;;;;11.66;100.00;99045.81;1657630;84;20145;-65
2021/05/23 02:15:15;;;;;;;;;;;;;;;11.63;100.00;99037.76;1655493;84;20159;-65
2021/05/23 02:17:44;;;;;;;;;;;;;;;11.63;100.00;99050.40;1633217;85;20199;-65
2021/05/23 02:20:27;;;;;;;;;;;;;;;11.60;100.00;99046.38;1656636;84;21164;-64
2021/05/23 02:22:57;;;;;;;;;;;;;;;11.58;100.00;99045.84;1655361;86;20148;-65
2021/05/23 02:25:25;;;;;;;;;;;;;;;11.56;100.00;99052.02;1654025;84;20625;-65
2021/05/23 02:27:56;;;;;;;;;;;;;;;11.56;100.00;99058.73;1655570;84;20549;-64
2021/05/23 02:30:28;;;;;;;;;;;;;;;11.53;100.00;99070.05;1656628;85;20171;-66
2021/05/23 02:32:56;;;;;;;;;;;;;;;11.49;100.00;99068.96;1659152;85;21092;-64
2021/05/23 02:35:25;;;;;;;;;;;;;;;11.47;100.00;99071.14;1663112;84;20177;-65
2021/05/23 02:37:52;;;;;;;;;;;;;;;11.41;100.00;99070.32;1642554;85;20252;-65
2021/05/23 02:40:20;;;;;;;;;;;;;;;11.38;100.00;99071.67;1654420;84;20197;-66
2021/05/23 02:42:48;;;;;;;;;;;;;;;11.35;100.00;99081.63;1665171;85;20172;-65
2021/05/23 02:45:15;;;;;;;;;;;;;;;11.31;100.00;99077.05;1655206;84;21699;-64
2021/05/23 02:47:43;;;;;;;;;;;;;;;11.26;100.00;99079.20;1658586;84;20571;-65
2021/05/23 02:50:19;;;;;;;;;;;;;;;11.21;100.00;99077.06;1653681;84;20208;-65
2021/05/23 02:52:46;;;;;;;;;;;;;;;11.19;100.00;99085.38;1642965;85;20657;-65
2021/05/23 02:55:13;;;;;;;;;;;;;;;11.15;100.00;99078.95;1650884;86;20172;-65
2021/05/23 02:57:41;;;;;;;;;;;;;;;11.13;100.00;99086.47;1644488;84;21167;-64
2021/05/23 03:00:10;;;;;;;;;;;;;;;11.12;100.00;99084.84;1657857;86;20204;-65
2021/05/23 03:02:36;;;;;;;;;;;;;;;11.10;100.00;99085.13;1663587;85;20550;-66
2021/05/23 03:05:05;;;;;;;;;;;;;;;11.08;100.00;99093.19;1656063;86;20165;-65
2021/05/23 03:07:41;;;;;;;;;;;;;;;11.04;100.00;99088.88;1657831;86;20237;-66
2021/05/23 03:10:13;;;;;;;;;;;;;;;11.01;100.00;99089.42;1659809;86;22465;-65
2021/05/23 03:12:41;;;;;;;;;;;;;;;11.05;100.00;99094.53;1654566;85;20185;-66
2021/05/23 03:15:10;;;;;;;;;;;;;;;11.14;100.00;99091.56;1657595;86;20268;-66
2021/05/23 03:17:36;;;;;;;;;;;;;;;11.24;100.00;99098.02;1658223;85;20185;-65
2021/05/23 03:20:05;;;;;;;;;;;;;;;11.34;100.00;99098.83;1661760;85;20172;-65
2021/05/23 03:22:32;;;;;;;;;;;;;;;11.45;100.00;99102.85;1657345;86;20755;-66
2021/05/23 03:24:59;;;;;;;;;;;;;;;11.53;100.00;99103.09;1652867;84;20164;-66
2021/05/23 03:27:27;;;;;;;;;;;;;;;11.60;100.00;99105.52;1658878;85;20551;-66
2021/05/23 03:29:54;;;;;;;;;;;;;;;11.71;100.00;99107.63;1651335;86;20164;-65
2021/05/23 03:32:21;;;;;;;;;;;;;;;11.81;100.00;99107.64;1658250;84;20176;-66
2021/05/23 03:34:48;;;;;;;;;;;;;;;11.88;100.00;99111.39;1657281;84;21105;-66
2021/05/23 03:37:15;;;;;;;;;;;;;;;11.95;100.00;99112.72;1648200;84;20525;-67
2021/05/23 03:39:42;;;;;;;;;;;;;;;12.01;100.00;99115.67;1660551;86;20176;-66
2021/05/23 03:42:08;;;;;;;;;;;;;;;12.09;100.00;99122.37;1655540;86;20614;-66
2021/05/23 03:44:35;;;;;;;;;;;;;;;12.19;100.00;99124.22;1657785;84;20186;-66
2021/05/23 03:47:02;;;;;;;;;;;;;;;12.23;100.00;99119.91;1659566;86;21116;-66
2021/05/23 03:49:29;;;;;;;;;;;;;;;12.31;100.00;99130.09;1656369;84;20185;-66
2021/05/23 03:51:56;;;;;;;;;;;;;;;12.39;100.00;99139.48;1657872;84;20547;-67
2021/05/23 03:54:22;;;;;;;;;;;;;;;12.49;100.00;99144.02;1657070;85;20602;-66
2021/05/23 03:56:49;;;;;;;;;;;;;;;12.54;100.00;99154.23;1654785;85;20181;-66
2021/05/23 03:59:15;;;;;;;;;;;;;;;12.55;100.00;99153.14;1661139;84;21108;-68
2021/05/23 04:01:42;;;;;;;;;;;;;;;12.61;100.00;99156.61;1655605;86;20173;-67
2021/05/23 04:04:10;;;;;;;;;;;;;;;12.65;100.00;99151.74;1658633;86;20589;-67
2021/05/23 04:06:36;;;;;;;;;;;;;;;12.69;100.00;99152.02;1665778;84;20157;-65
2021/05/23 04:09:05;;;;;;;;;;;;;;;12.72;100.00;99158.18;1657702;86;20200;-67
2021/05/23 04:11:36;;;;;;;;;;;;;;;12.82;100.00;99157.32;1647552;86;21887;-66
2021/05/23 04:14:00;;;;;;;;;;;;;;;12.86;100.00;99158.35;1660612;85;20187;-67
2021/05/23 04:16:26;;;;;;;;;;;;;;;12.91;100.00;99155.66;1657543;84;20153;-65
2021/05/23 04:18:54;;;;;;;;;;;;;;;12.98;100.00;99164.75;1647540;84;20163;-65
2021/05/23 04:21:21;;;;;;;;;;;;;;;13.07;100.00;99172.52;1657002;84;20173;-66
2021/05/23 04:23:48;;;;;;;;;;;;;;;13.20;100.00;99178.62;1654374;84;21115;-67
2021/05/23 04:26:16;;;;;;;;;;;;;;;13.27;100.00;99176.44;1654802;86;20601;-66
2021/05/23 04:28:43;;;;;;;;;;;;;;;13.32;100.00;99177.50;1657441;86;20534;-65
2021/05/23 04:31:09;;;;;;;;;;;;;;;13.40;100.00;99175.55;1653284;84;20244;-65
2021/05/23 04:33:37;;;;;;;;;;;;;;;13.55;100.00;99182.70;1653555;85;20235;-64
2021/05/23 04:36:04;;;;;;;;;;;;;;;13.75;100.00;99179.86;1660782;86;21069;-66
2021/05/23 04:38:30;;;;;;;;;;;;;;;13.73;100.00;99184.17;1658594;85;20182;-65
2021/05/23 04:40:58;;;;;;;;;;;;;;;13.72;100.00;99190.67;1660220;86;20260;-68
2021/05/23 04:43:24;;;;;;;;;;;;;;;13.75;100.00;99193.34;1654447;84;20544;-66
2021/05/23 04:45:51;;;;;;;;;;;;;;;13.75;100.00;99197.94;1655008;84;20176;-66
2021/05/23 04:48:18;;;;;;;;;;;;;;;13.85;100.00;99198.64;1650121;85;21966;-65
2021/05/23 04:50:44;;;;;;;;;;;;;;;13.98;100.00;99211.20;1655146;86;20133;-68
2021/05/23 04:53:11;;;;;;;;;;;;;;;14.07;100.00;99204.91;1652432;86;20590;-66
2021/05/23 04:55:37;;;;;;;;;;;;;;;14.09;100.00;99212.73;1659674;84;20468;-66
2021/05/23 04:58:04;;;;;;;;;;;;;;;14.17;100.00;99222.09;1666073;85;20257;-65
2021/05/23 05:00:31;;;;;;;;;;;;;;;14.14;100.00;99227.52;1662670;85;21818;-65
2021/05/23 05:02:57;;;;;;;;;;;;;;;14.22;100.00;99222.84;1652728;84;20173;-66
2021/05/23 05:05:24;;;;;;;;;;;;;;;14.34;100.00;99227.30;1656926;84;20171;-66
2021/05/23 05:07:51;;;;;;;;;;;;;;;14.46;100.00;99228.26;1661718;85;20245;-65
2021/05/23 05:10:21;;;;;;;;;;;;;;;14.63;100.00;99229.73;1658928;86;20193;-69
2021/05/23 05:12:48;;;;;;;;;;;;;;;14.66;100.00;99225.09;1657204;84;21134;-68
2021/05/23 05:15:15;;;;;;;;;;;;;;;14.56;100.00;99238.97;1664052;85;20605;-66
2021/05/23 05:17:43;;;;;;;;;;;;;;;14.59;100.00;99247.05;1654533;84;20594;-66
2021/05/23 05:20:11;;;;;;;;;;;;;;;14.67;100.00;99249.66;1662066;84;20177;-66
2021/05/23 05:22:38;;;;;;;;;;;;;;;14.84;100.00;99254.03;1651895;84;20172;-67
2021/05/23 05:25:06;;;;;;;;;;;;;;;15.01;100.00;99258.41;1652342;84;21117;-66
2021/05/23 05:27:33;;;;;;;;;;;;;;;15.18;100.00;99266.03;1653097;85;20169;-68
2021/05/23 05:30:00;;;;;;;;;;;;;;;15.37;100.00;99265.25;1660902;86;20215;-68
2021/05/23 05:32:26;;;;;;;;;;;;;;;15.45;100.00;99269.98;1653870;85;20328;-67
2021/05/23 05:34:53;;;;;;;;;;;;;;;15.64;100.00;99268.08;1650857;84;20291;-67
2021/05/23 05:37:19;;;;;;;;;;;;;;;15.70;100.00;99269.38;1654731;86;21180;-69
2021/05/23 05:39:46;;;;;;;;;;;;;;;15.93;100.00;99269.83;1661160;84;20251;-69
2021/05/23 05:42:12;;;;;;;;;;;;;;;16.17;100.00;99272.94;1658106;86;20288;-69
2021/05/23 05:44:39;;;;;;;;;;;;;;;16.22;100.00;99275.58;1664712;84;20370;-69
2021/05/23 05:47:06;;;;;;;;;;;;;;;16.28;100.00;99280.59;1657184;85;20268;-69
2021/05/23 05:49:50;;;;;;;;;;;;;;;16.38;100.00;99282.31;1657263;84;20832;-69
2021/05/23 05:52:19;;;;;;;;;;;;;;;16.26;100.00;99285.49;1651637;84;20168;-68
2021/05/23 05:54:45;;;;;;;;;;;;;;;16.28;100.00;99285.20;1667279;86;20248;-67
2021/05/23 05:57:12;;;;;;;;;;;;;;;16.42;100.00;99285.24;1658520;85;20181;-69
2021/05/23 05:59:39;;;;;;;;;;;;;;;16.48;100.00;99290.25;1658132;84;20233;-68
2021/05/23 06:02:07;;;;;;;;;;;;;;;16.68;100.00;99289.61;1643900;84;21919;-68
2021/05/23 06:04:34;;;;;;;;;;;;;;;16.77;100.00;99292.44;1657349;84;20169;-67
2021/05/23 06:07:00;;;;;;;;;;;;;;;17.04;100.00;99292.45;1643974;86;20227;-67
2021/05/23 06:09:27;;;;;;;;;;;;;;;17.17;99.99;99289.47;1654002;84;20169;-67
2021/05/23 06:11:55;;;;;;;;;;;;;;;17.10;97.58;99285.83;1653772;85;20268;-69
2021/05/23 06:14:22;;;;;;;;;;;;;;;16.96;95.01;99282.33;1631313;86;21190;-68
2021/05/23 06:16:52;;;;;;;;;;;;;;;17.19;96.15;99288.62;1655129;84;20207;-69
2021/05/23 06:19:19;;;;;;;;;;;;;;;17.30;94.11;99285.15;1652537;86;20345;-65
2021/05/23 06:21:47;;;;;;;;;;;;;;;17.29;96.61;99282.97;1654996;86;20673;-67
2021/05/23 06:24:13;;;;;;;;;;;;;;;17.72;97.06;99277.13;1662922;85;20200;-66
2021/05/23 06:26:42;;;;;;;;;;;;;;;17.95;95.13;99280.66;1652945;84;21104;-68
2021/05/23 06:29:09;;;;;;;;;;;;;;;17.86;92.52;99283.89;1660910;84;20211;-67
2021/05/23 06:31:38;;;;;;;;;;;;;;;17.85;87.72;99282.83;1658183;86;20207;-67
2021/05/23 06:34:07;;;;;;;;;;;;;;;17.91;90.13;99287.84;1651546;84;20245;-69
2021/05/23 06:36:39;;;;;;;;;;;;;;;18.16;86.36;99288.32;1652493;83;20224;-67
2021/05/23 06:39:07;;;;;;;;;;;;;;;18.09;85.09;99291.47;1658362;85;22167;-68
2021/05/23 06:41:33;;;;;;;;;;;;;;;17.92;84.41;99297.58;1661007;86;20232;-67
2021/05/23 06:44:01;;;;;;;;;;;;;;;18.04;87.94;99297.02;1659712;84;20176;-67
2021/05/23 06:46:27;;;;;;;;;;;;;;;18.10;87.78;99288.98;1657736;86;20272;-68
2021/05/23 06:48:55;;;;;;;;;;;;;;;18.17;84.09;99292.63;1653758;84;20550;-70
2021/05/23 06:51:24;;;;;;;;;;;;;;;18.32;85.44;99296.87;1656835;84;21017;-69
2021/05/23 06:53:52;;;;;;;;;;;;;;;18.37;83.09;99288.58;1654562;84;20178;-69
2021/05/23 06:56:19;;;;;;;;;;;;;;;18.34;81.26;99285.13;1659150;85;20173;-72
2021/05/23 06:58:46;;;;;;;;;;;;;;;18.40;83.46;99290.13;1654128;84;20160;-67
2021/05/23 07:01:14;;;;;;;;;;;;;;;18.56;82.48;99289.16;1657928;84;20934;-71
2021/05/23 07:03:44;;;;;;;;;;;;;;;18.77;83.62;99294.88;1652842;85;22159;-67
2021/05/23 07:06:11;;;;;;;;;;;;;;;18.75;82.63;99291.64;1648082;84;20152;-69
2021/05/23 07:08:38;;;;;;;;;;;;;;;18.63;83.21;99271.84;1658000;86;20189;-69
2021/05/23 07:11:09;;;;;;;;;;;;;;;18.48;81.33;99283.70;1645359;85;20166;-69
2021/05/23 07:13:36;;;;;;;;;;;;;;;18.43;80.98;99284.63;1660474;84;20343;-69
2021/05/23 07:16:06;;;;;;;;;;;;;;;18.25;81.32;99274.77;1650057;84;21152;-68
2021/05/23 07:18:35;;;;;;;;;;;;;;;18.57;80.75;99281.27;1654318;84;20662;-65
2021/05/23 07:21:02;;;;;;;;;;;;;;;18.67;79.53;99275.28;1646614;84;20153;-64
2021/05/23 07:23:29;;;;;;;;;;;;;;;18.74;82.47;99270.19;1657495;84;20769;-68
2021/05/23 07:25:57;;;;;;;;;;;;;;;18.91;82.46;99276.28;1658836;85;20274;-68
2021/05/23 07:28:25;;;;;;;;;;;;;;;19.12;80.54;99278.66;1661054;86;21039;-66
2021/05/23 07:30:52;;;;;;;;;;;;;;;18.90;78.17;99278.77;1655975;84;20566;-67
2021/05/23 07:33:20;;;;;;;;;;;;;;;19.05;77.82;99277.75;1631612;86;20194;-67
2021/05/23 07:36:05;;;;;;;;;;;;;;;18.90;74.98;99273.33;1650734;84;20148;-67
2021/05/23 07:38:15;;;;;;;;;;;;;;;19.11;71.55;99281.14;1655911;86;20261;-65
2021/05/23 07:40:44;;;;;;;;;;;;;;;19.10;70.10;99280.09;1646704;84;20212;-68
2021/05/23 07:43:14;;;;;;;;;;;;;;;18.84;71.63;99285.71;1654289;84;20223;-68
2021/05/23 07:45:40;;;;;;;;;;;;;;;19.15;71.05;99282.66;1648123;84;20194;-65
2021/05/23 07:48:08;;;;;;;;;;;;;;;19.55;71.69;99292.89;1655008;85;20315;-65
2021/05/23 07:50:36;;;;;;;;;;;;;;;19.57;68.90;99285.74;1649438;84;20229;-64
2021/05/23 07:53:08;;;;;;;;;;;;;;;19.82;66.69;99289.61;1651908;84;21831;-69
2021/05/23 07:55:37;;;;;;;;;;;;;;;19.83;65.51;99292.59;1654858;86;20153;-66
2021/05/23 07:58:05;;;;;;;;;;;;;;;19.44;66.65;99293.74;1659752;84;20212;-67
2021/05/23 08:00:32;;;;;;;;;;;;;;;19.72;66.41;99300.83;1650328;85;20177;-65
2021/05/23 08:02:58;;;;;;;;;;;;;;;19.90;61.20;99301.87;1657386;86;20153;-66
2021/05/23 08:05:27;;;;;;;;;;;;;;;19.97;61.15;99297.88;1651991;84;20654;-65
2021/05/23 08:07:57;;;;;;;;;;;;;;;19.96;62.19;99294.89;1655387;85;20184;-66
2021/05/23 08:10:28;;;;;;;;;;;;;;;19.98;59.40;99303.55;1663787;85;20240;-67
2021/05/23 08:12:54;;;;;;;;;;;;;;;20.13;57.80;99309.84;1652019;86;20185;-69
2021/05/23 08:15:21;;;;;;;;;;;;;;;20.14;58.10;99310.10;1660832;84;20290;-68
2021/05/23 08:17:50;;;;;;;;;;;;;;;20.07;60.10;99315.23;1656982;85;21605;-67
2021/05/23 08:20:22;;;;;;;;;;;;;;;20.10;57.92;99300.39;1651824;86;20169;-68
2021/05/23 08:22:49;;;;;;;;;;;;;;;20.47;57.94;99322.59;1660799;84;20213;-66
2021/05/23 08:25:21;;;;;;;;;;;;;;;20.74;53.59;99307.77;1655161;84;20257;-68
2021/05/23 08:27:50;;;;;;;;;;;;;;;20.73;53.43;99316.30;1658547;86;20200;-67
2021/05/23 08:30:22;;;;;;;;;;;;;;;20.22;52.37;99322.90;1657501;86;21687;-65
2021/05/23 08:32:48;;;;;;;;;;;;;;;19.84;55.51;99320.88;1650420;84;20610;-64
2021/05/23 08:35:16;;;;;;;;;;;;;;;19.36;55.37;99331.28;1661452;85;20261;-66
2021/05/23 08:37:44;;;;;;;;;;;;;;;19.47;55.77;99327.12;1658744;84;20253;-64
2021/05/23 08:40:13;;;;;;;;;;;;;;;19.74;53.77;99329.91;1657401;85;20265;-65
2021/05/23 08:42:40;;;;;;;;;;;;;;;19.95;53.25;99324.63;1653407;84;21101;-67
2021/05/23 08:45:08;;;;;;;;;;;;;;;19.91;51.97;99327.17;1661860;85;20204;-67
2021/05/23 08:47:44;;;;;;;;;;;;;;;19.97;51.43;99325.11;1645350;85;20168;-62
2021/05/23 08:50:12;;;;;;;;;;;;;;;20.37;51.78;99317.50;1660200;84;20199;-66
2021/05/23 08:52:42;;;;;;;;;;;;;;;20.97;51.84;99313.78;1645918;84;20610;-69
2021/05/23 08:55:11;;;;;;;;;;;;;;;21.18;48.03;99322.56;1647879;84;21134;-67
2021/05/23 08:57:37;;;;;;;;;;;;;;;20.77;44.58;99310.41;1649139;84;20614;-67
2021/05/23 09:00:05;;;;;;;;;;;;;;;20.69;47.43;99316.70;1659969;84;20173;-67
2021/05/23 09:02:33;;;;;;;;;;;;;;;20.84;45.74;99323.55;1657902;84;20427;-66
2021/05/23 09:05:00;;;;;;;;;;;;;;;20.84;44.17;99316.72;1643173;84;20235;-65
2021/05/23 09:07:27;;;;;;;;;;;;;;;20.87;46.32;99321.52;1660364;85;21099;-65
2021/05/23 09:09:55;;;;;;;;;;;;;;;20.45;45.12;99310.42;1654195;85;20247;-66
2021/05/23 09:12:22;;;;;;;;;;;;;;;20.42;42.57;99321.41;1662057;84;20252;-66
2021/05/23 09:14:50;;;;;;;;;;;;;;;20.56;42.51;99318.52;1655810;84;20605;-65
2021/05/23 09:17:25;;;;;;;;;;;;;;;20.73;44.34;99318.45;1650423;84;20622;-65
2021/05/23 09:19:53;;;;;;;;;;;;;;;20.70;45.95;99313.66;1652464;84;22031;-65
2021/05/23 09:22:24;;;;;;;;;;;;;;;20.72;43.56;99313.31;1649310;85;20202;-67
2021/05/23 09:24:57;;;;;;;;;;;;;;;20.66;44.09;99315.43;1661896;86;20227;-66
2021/05/23 09:27:28;;;;;;;;;;;;;;;20.61;43.11;99328.45;1656306;84;20343;-69
2021/05/23 09:30:08;;;;;;;;;;;;;;;20.58;43.03;99329.08;1653204;86;20276;-68
2021/05/23 09:32:37;;;;;;;;;;;;;;;20.64;44.41;99315.52;1662196;85;21195;-67
2021/05/23 09:35:09;;;;;;;;;;;;;;;20.89;42.71;99313.81;1650821;85;20153;-66
2021/05/23 09:37:37;;;;;;;;;;;;;;;21.14;43.03;99314.80;1652626;85;20323;-66
2021/05/23 09:40:24;;;;;;;;;;;;;;;21.08;43.82;99314.20;1651206;85;20236;-67
2021/05/23 09:42:52;;;;;;;;;;;;;;;20.87;43.90;99320.98;1655341;85;20417;-67
2021/05/23 09:45:22;;;;;;;;;;;;;;;21.04;43.70;99322.80;1656506;84;21072;-66
2021/05/23 09:47:56;;;;;;;;;;;;;;;21.21;43.77;99324.63;1658759;84;20571;-69
2021/05/23 09:50:38;;;;;;;;;;;;;;;21.20;44.16;99329.86;1659361;84;20578;-71
2021/05/23 09:53:17;;;;;;;;;;;;;;;21.12;42.47;99330.72;1652301;84;20215;-68
2021/05/23 09:56:02;;;;;;;;;;;;;;;20.94;43.42;99328.63;1670743;84;20268;-66
2021/05/23 09:58:33;;;;;;;;;;;;;;;21.14;45.21;99328.44;1673003;85;21573;-66
2021/05/23 10:01:01;;;;;;;;;;;;;;;21.73;45.18;99331.69;1674478;85;20187;-66
2021/05/23 10:03:29;;;;;;;;;;;;;;;21.95;43.37;99331.91;1674401;85;20342;-67
2021/05/23 10:05:58;;;;;;;;;;;;;;;21.88;42.52;99331.66;1675167;85;20226;-69
2021/05/23 10:08:27;;;;;;;;;;;;;;;21.90;41.64;99323.92;1674594;85;20614;-65
2021/05/23 10:10:54;;;;;;;;;;;;;;;21.57;42.80;99340.48;1672918;85;21082;-68
2021/05/23 10:13:23;;;;;;;;;;;;;;;21.53;40.42;99329.98;1674610;85;20577;-65
2021/05/23 10:15:51;;;;;;;;;;;;;;;21.67;39.84;99330.31;1673558;85;20164;-67
2021/05/23 10:18:20;;;;;;;;;;;;;;;21.71;39.69;99324.42;1674442;85;20617;-65
2021/05/23 10:20:47;;;;;;;;;;;;;;;21.68;41.58;99335.99;1674767;85;20724;-67
2021/05/23 10:23:17;;;;;;;;;;;;;;;21.47;38.03;99335.42;1674504;85;21101;-69
2021/05/23 10:25:53;;;;;;;;;;;;;;;21.26;39.46;99329.89;1674484;85;20147;-67
2021/05/23 10:28:20;;;;;;;;;;;;;;;20.79;38.48;99340.88;1648750;85;20220;-66
2021/05/23 10:30:52;;;;;;;;;;;;;;;20.96;40.05;99338.65;1671188;85;20332;-67
2021/05/23 10:33:20;;;;;;;;;;;;;;;21.23;39.63;99346.14;1643849;85;20260;-68
2021/05/23 10:35:49;;;;;;;;;;;;;;;21.40;39.42;99340.61;1649798;85;20582;-66
2021/05/23 10:38:19;;;;;;;;;;;;;;;21.64;39.46;99344.06;1661837;85;20572;-68
2021/05/23 10:41:01;;;;;;;;;;;;;;;21.73;38.09;99334.42;1646860;85;20254;-67
2021/05/23 10:43:29;;;;;;;;;;;;;;;21.52;39.67;99335.80;1664255;85;20181;-67
2021/05/23 10:46:15;;;;;;;;;;;;;;;21.62;41.73;99337.56;1663638;85;20230;-68
2021/05/23 10:48:58;;;;;;;;;;;;;;;21.57;40.34;99329.56;1672273;84;20696;-68
2021/05/23 10:51:25;;;;;;;;;;;;;;;21.35;37.52;99338.84;1716510;82;20231;-65
2021/05/23 10:53:52;;;;;;;;;;;;;;;21.57;37.75;99321.38;1711056;83;20228;-67
2021/05/23 10:56:29;;;;;;;;;;;;;;;21.61;37.64;99316.06;1708588;82;20272;-67
2021/05/23 10:58:57;;;;;;;;;;;;;;;21.73;36.81;99338.52;1709040;82;20200;-66
2021/05/23 11:01:46;;;;;;;;;;;;;;;21.99;38.20;99344.58;1708849;82;21008;-66
2021/05/23 11:04:15;;;;;;;;;;;;;;;22.18;38.36;99340.56;1703437;82;20207;-67
2021/05/23 11:06:43;;;;;;;;;;;;;;;22.24;36.55;99344.16;1709174;82;20196;-64
2021/05/23 11:09:20;;;;;;;;;;;;;;;22.18;34.78;99355.59;1709021;82;20196;-68
2021/05/23 11:11:47;;;;;;;;;;;;;;;22.05;34.71;99352.81;1686958;83;20196;-67
2021/05/23 11:14:24;;;;;;;;;;;;;;;21.97;35.57;99346.84;1708487;84;21086;-64
2021/05/23 11:16:58;;;;;;;;;;;;;;;22.18;34.59;99335.09;1708794;82;21004;-65
2021/05/23 11:19:28;;;;;;;;;;;;;;;22.31;36.09;99344.95;1709333;82;20148;-66
2021/05/23 11:21:55;;;;;;;;;;;;;;;22.22;36.07;99343.69;1673122;84;20190;-62
2021/05/23 11:24:27;;;;;;;;;;;;;;;22.08;36.94;99343.72;1659130;84;20301;-74
2021/05/23 11:26:56;;;;;;;;;;;;;;;21.76;34.56;99318.76;1663867;84;21741;-64
2021/05/23 11:29:26;;;;;;;;;;;;;;;21.74;34.89;99340.14;1646995;87;20649;-66
2021/05/23 11:31:53;;;;;;;;;;;;;;;21.83;35.50;99343.03;1701169;82;20211;-67
2021/05/23 11:34:20;;;;;;;;;;;;;;;21.94;36.64;99343.41;1708299;82;20330;-68
2021/05/23 11:36:48;;;;;;;;;;;;;;;22.24;34.88;99343.33;1707020;82;20207;-66
2021/05/23 11:39:21;;;;;;;;;;;;;;;21.94;34.48;99350.25;1708706;82;21196;-68
2021/05/23 11:41:48;;;;;;;;;;;;;;;22.14;34.76;99349.19;1706864;82;20232;-74
2021/05/23 11:44:18;;;;;;;;;;;;;;;22.13;34.26;99348.97;1708033;82;20180;-67
2021/05/23 11:46:51;;;;;;;;;;;;;;;21.89;33.52;99347.72;1707145;82;20188;-66
2021/05/23 11:49:23;;;;;;;;;;;;;;;22.03;35.04;99345.52;1705562;82;20268;-65
2021/05/23 11:51:49;;;;;;;;;;;;;;;22.34;36.10;99346.21;1711493;82;21030;-67
2021/05/23 11:54:17;;;;;;;;;;;;;;;22.37;33.96;99344.98;1708901;82;20197;-69
2021/05/23 11:56:45;;;;;;;;;;;;;;;22.08;32.12;99348.61;1684765;83;20770;-67
2021/05/23 11:59:12;;;;;;;;;;;;;;;22.00;33.32;99327.64;1675643;84;20247;-64
2021/05/23 12:01:43;;;;;;;;;;;;;;;22.05;32.57;99343.25;1657617;84;20262;-69
2021/05/23 12:04:12;;;;;;;;;;;;;;;22.02;33.87;99346.66;1668215;84;21685;-66
2021/05/23 12:06:43;;;;;;;;;;;;;;;21.58;33.30;99335.28;1660008;85;20579;-68
2021/05/23 12:09:23;;;;;;;;;;;;;;;21.38;33.84;99343.63;1660143;85;20279;-69
2021/05/23 12:11:58;;;;;;;;;;;;;;;21.44;34.41;99336.09;1650627;85;20251;-68
2021/05/23 12:14:33;;;;;;;;;;;;;;;21.47;33.92;99337.36;1650206;84;20260;-66
2021/05/23 12:17:24;;;;;;;;;;;;;;;21.52;35.54;99340.69;1655543;85;21126;-66
2021/05/23 12:19:55;;;;;;;;;;;;;;;21.74;36.56;99340.93;1657099;85;20224;-68
2021/05/23 12:22:35;;;;;;;;;;;;;;;21.94;35.60;99337.16;1655665;84;20232;-68
2021/05/23 12:25:10;;;;;;;;;;;;;;;21.86;31.53;99338.84;1644117;86;20197;-66
2021/05/23 12:27:52;;;;;;;;;;;;;;;21.92;31.19;99326.55;1660148;85;20298;-66
2021/05/23 12:30:24;;;;;;;;;;;;;;;21.62;33.59;99340.86;1648888;84;21133;-64
2021/05/23 12:33:05;;;;;;;;;;;;;;;21.37;33.65;99334.42;1649413;84;20221;-67
2021/05/23 12:35:39;;;;;;;;;;;;;;;21.43;34.93;99329.02;1627602;86;20192;-65
2021/05/23 12:38:16;;;;;;;;;;;;;;;21.43;35.89;99336.41;1657489;85;20208;-62
2021/05/23 12:40:46;;;;;;;;;;;;;;;21.29;36.86;99329.80;1654780;86;20219;-66
2021/05/23 12:43:28;;;;;;;;;;;;;;;21.33;36.88;99332.11;1652867;86;21634;-65
2021/05/23 12:46:02;;;;;;;;;;;;;;;21.46;36.08;99328.38;1655823;84;20216;-68
2021/05/23 12:48:36;;;;;;;;;;;;;;;21.44;36.01;99316.98;1657535;84;20166;-68
2021/05/23 12:51:13;;;;;;;;;;;;;;;21.41;35.84;99328.55;1650123;84;20687;-67
2021/05/23 12:53:48;;;;;;;;;;;;;;;21.45;36.14;99323.23;1655080;85;20543;-69